• Join FlightAware (Why Join?)
  • Login
  • US Flag 
06:30AM EDT


 

Airport Tracker/Info


-or-


 

Live Flight TrackerFlight Track Log ✈ ASQ5685 ✈ 16-Jun-2013 ✈ KATL - KIAD

Flight Track Log - Related Links

Times and Time Zones

All times are in EDT time to prevent confusion due to time zone crossing. See the ASQ5685 flight status page for this flight to view local times or setup timezone preferences in your user account.

Time Position Orientation Groundspeed Altitude Reporting Facility
EDT Latitude Longitude Course Direction KTS MPH feet Rate Location/Type
09:23AM 33.6333 -84.3667 48° Northeast 174 200 2,500  Level Atlanta TRACON
09:24AM 33.6333 -84.3000 90° East 264 304 3,600 1,800 Climbing Atlanta TRACON
09:25AM 33.8516 -84.1725 73° East  Level Estimated
09:25AM 33.6333 -84.2000 90° East 282 325 6,100  Level Atlanta TRACON
09:26AM 33.9232 -84.0871 54° Northeast  Level Estimated
09:26AM 33.6333 -84.1167 90° East 294 338 8,400  Level Atlanta TRACON
09:26AM 33.6439 -84.0886 66° East 291 335 9,000 1,680 Climbing Atlanta Center
09:27AM 33.9012 -83.9687 103° East  Level FlightAware Approximate
09:27AM 33.7003 -84.0164 47° Northeast 300 345 10,600  Level Atlanta Center
09:28AM 33.9734 -83.8840 48° Northeast  Level Estimated
09:28AM 33.7628 -83.9339 48° Northeast 315 362 11,600  Level Atlanta Center
09:29AM 33.8294 -83.8464 47° Northeast 341 392 13,000 1,200 Climbing Atlanta Center
09:30AM 33.8900 -83.7686 47° Northeast 353 406 14,100 1,200 Climbing Atlanta Center
09:32AM 34.0189 -83.5725 52° Northeast 364 419 16,700 1,200 Climbing Atlanta Center
09:33AM 34.0831 -83.4719 52° Northeast 364 419 17,800 900 Climbing Atlanta Center
09:34AM 34.1472 -83.3711 52° Northeast 370 426 18,600 900 Climbing Atlanta Center
09:35AM 34.2114 -83.2650 54° Northeast 382 440 19,600 900 Climbing Atlanta Center
09:36AM 34.2817 -83.1589 51° Northeast 390 449 20,400 900 Climbing Atlanta Center
09:37AM 34.3453 -83.0475 55° Northeast 395 455 21,500 1,020 Climbing Atlanta Center
09:38AM 34.4153 -82.9308 54° Northeast 395 455 22,500 720 Climbing Atlanta Center
09:39AM 34.4833 -82.8217 53° Northeast 395 455 23,000 600 Climbing Atlanta Center
09:40AM 34.5531 -82.7122 52° Northeast 401 461 23,700 480 Climbing Atlanta Center
09:41AM 34.6228 -82.6000 53° Northeast 407 468 24,000 180 Climbing Atlanta Center
09:42AM 34.6944 -82.4900 52° Northeast 407 468 24,100 540 Climbing Atlanta Center
09:43AM 34.7658 -82.3675 55° Northeast 417 480 25,100 780 Climbing Atlanta Center
09:44AM 34.8353 -82.2572 52° Northeast 417 480 25,700 600 Climbing Atlanta Center
09:45AM 34.9067 -82.1417 53° Northeast 422 486 26,400 600 Climbing Atlanta Center
09:46AM 34.9758 -82.0311 53° Northeast 417 480 27,000 300 Climbing Atlanta Center
09:47AM 35.0447 -81.9153 54° Northeast 417 480 27,000  Level Atlanta Center
09:48AM 35.1072 -81.7919 58° Northeast 417 480 27,000  Level Atlanta Center
09:49AM 35.1697 -81.6708 58° Northeast 417 480 27,000  Level Atlanta Center
09:50AM 35.2319 -81.5519 57° Northeast 422 486 27,000  Level Atlanta Center
09:51AM 35.2942 -81.4306 58° Northeast 422 486 27,000  Level Atlanta Center
09:52AM 35.3583 -81.3114 57° Northeast 417 480 27,000  Level Atlanta Center
09:53AM 35.4181 -81.1897 59° Northeast 422 486 27,000  Level Atlanta Center
09:54AM 35.4842 -81.0650 57° Northeast 422 486 27,000  Level Atlanta Center
09:55AM 35.5478 -80.9453 57° Northeast 422 486 27,000  Level Atlanta Center
09:56AM 35.6094 -80.8278 57° Northeast 417 480 27,000  Level Atlanta Center
09:57AM 35.6711 -80.7106 57° Northeast 417 480 27,000  Level Atlanta Center
09:58AM 35.7325 -80.5903 58° Northeast 417 480 27,000  Level Atlanta Center
09:59AM 35.7858 -80.4856 58° Northeast 417 480 27,000  Level Atlanta Center
10:00AM 35.8447 -80.3653 59° Northeast 417 480 27,000  Level Atlanta Center
10:02AM 35.9772 -80.1017 58° Northeast 413 475 27,000  Level Washington Center
10:03AM 36.0486 -79.9775 55° Northeast 407 468 27,000  Level Washington Center
10:04AM 36.1133 -79.8600 56° Northeast 407 468 27,000  Level Washington Center
10:05AM 36.1803 -79.7403 55° Northeast 407 468 27,000 -360 Level Washington Center
10:06AM 36.2467 -79.6228 55° Northeast 416 479 26,300 -900 Descending Washington Center
10:07AM 36.3197 -79.4950 55° Northeast 433 498 25,300 -720 Descending Washington Center
10:08AM 36.3772 -79.3947 55° Northeast 438 504 25,000 -180 Descending Washington Center
10:09AM 36.4636 -79.2336 56° Northeast 457 526 25,000  Level Washington Center
10:10AM 36.5364 -79.1078 54° Northeast 457 526 25,000  Level Washington Center
10:11AM 36.6089 -78.9789 55° Northeast 452 520 25,000  Level Washington Center
10:12AM 36.6728 -78.8575 57° Northeast 447 514 25,000  Level Washington Center
10:13AM 36.7431 -78.7308 55° Northeast 452 520 25,000 -180 Level Washington Center
10:14AM 36.8131 -78.5989 56° Northeast 452 520 24,700 -720 Descending Washington Center
10:15AM 36.8936 -78.4592 54° Northeast 452 520 23,600 -1,080 Descending Washington Center
10:16AM 36.9636 -78.3264 57° Northeast 446 513 22,600 -840 Descending Washington Center
10:17AM 37.0678 -78.2392 34° Northeast 441 507 22,000 -300 Descending Washington Center
10:18AM 37.1694 -78.1697 29° Northeast 428 493 22,000  Level Washington Center
10:19AM 37.2711 -78.1000 29° Northeast 418 481 22,000  Level Washington Center
10:20AM 37.3728 -78.0275 30° Northeast 413 475 22,000  Level Washington Center
10:21AM 37.4764 -77.9575 28° Northeast 408 470 22,000  Level Washington Center
10:22AM 37.5778 -77.8819 31° Northeast 413 475 22,000 -540 Level Washington Center
10:23AM 37.6794 -77.8089 30° Northeast 413 475 21,000 -1,680 Descending Washington Center
10:24AM 37.7850 -77.7333 29° Northeast 420 483 18,700 -2,340 Descending Washington Center
10:25AM 37.8864 -77.6597 30° Northeast 421 484 16,500 -2,220 Descending Washington Center
10:26AM 37.9814 -77.5886 31° Northeast 410 472 14,400 -1,980 Descending Washington Center
10:27AM 38.0617 -77.5356 27° Northeast 389 448 12,500 -1,860 Descending Washington Center
10:28AM 38.1439 -77.4742 30° Northeast 357 411 10,800 -1,320 Descending Washington Center
10:29AM 38.2197 -77.4258 27° Northeast 325 374 10,000 -900 Descending Washington Center
10:30AM 38.2933 -77.3828 25° Northeast 298 343 9,100 -1,020 Descending Washington Center
10:31AM 38.3689 -77.3581 14° North 287 330 8,000 -1,080 Descending Washington Center
10:32AM 38.4439 -77.3625 357° North 267 307 7,000 -1,020 Descending Washington Center
10:33AM 38.5189 -77.3642 359° North 267 307 6,000 -1,020 Descending Washington Center
10:34AM 38.5939 -77.3686 357° North 267 307 5,000 -960 Descending Washington Center
10:35AM 38.6669 -77.3650 North 272 313 4,100 -480 Descending Washington Center
10:37AM 38.7500 -77.3500 North 264 304 4,100  Level Potomac TRACON
10:38AM 38.8333 -77.3500 360° North 266 306 4,100 -360 Level Potomac TRACON
10:39AM 38.9167 -77.3500 360° North 265 305 3,400 -540 Descending Potomac TRACON
10:39AM 38.9833 -77.3500 360° North 271 312 3,100 -300 Descending Potomac TRACON
10:40AM 39.0333 -77.3667 345° North 218 251 2,900 -240 Descending Potomac TRACON